createdAt,value
2023-08-22T00:01:28.215Z,93.97
2023-08-22T00:03:54.796Z,94.73
2023-08-22T00:06:21.229Z,94.70
2023-08-22T00:08:47.617Z,94.16
2023-08-22T00:11:14.003Z,94.27
2023-08-22T00:13:40.350Z,94.71
2023-08-22T00:16:06.800Z,97.08
2023-08-22T00:18:33.200Z,98.21
2023-08-22T00:20:59.569Z,97.71
2023-08-22T00:23:25.948Z,95.45
2023-08-22T00:25:52.372Z,94.98
2023-08-22T00:28:18.726Z,95.34
2023-08-22T00:30:45.160Z,95.36
2023-08-22T00:33:11.609Z,95.03
2023-08-22T00:35:37.987Z,94.89
2023-08-22T00:38:04.439Z,94.73
2023-08-22T00:40:30.867Z,94.76
2023-08-22T00:42:57.859Z,94.04
2023-08-22T00:45:24.301Z,93.83
2023-08-22T00:47:51.258Z,93.76
2023-08-22T00:50:17.848Z,94.10
2023-08-22T00:52:44.220Z,94.50
2023-08-22T00:55:10.757Z,94.82
2023-08-22T00:57:38.221Z,95.67
2023-08-22T01:00:05.565Z,96.98
2023-08-22T01:02:32.821Z,96.83
2023-08-22T01:04:59.765Z,96.00
2023-08-22T01:07:38.252Z,94.79
2023-08-22T01:10:22.155Z,94.72
2023-08-22T01:12:52.759Z,95.44
2023-08-22T01:15:29.697Z,94.93
2023-08-22T01:17:58.509Z,94.31
2023-08-22T01:20:26.026Z,94.14
2023-08-22T01:22:52.554Z,94.11
2023-08-22T01:25:18.959Z,94.23
2023-08-22T01:27:56.108Z,94.81
2023-08-22T01:30:42.808Z,95.58
2023-08-22T01:33:14.264Z,96.21
2023-08-22T01:35:44.596Z,96.11
2023-08-22T01:38:11.899Z,95.58
2023-08-22T01:40:38.901Z,95.31
2023-08-22T01:43:05.487Z,95.34
2023-08-22T01:45:31.880Z,95.88
2023-08-22T01:47:58.253Z,96.78
2023-08-22T01:50:24.642Z,97.37
2023-08-22T01:52:51.001Z,97.14
2023-08-22T01:55:17.530Z,97.26
2023-08-22T01:57:43.869Z,97.84
2023-08-22T02:00:10.727Z,97.82
2023-08-22T02:02:37.361Z,97.69
2023-08-22T02:05:04.244Z,98.11
2023-08-22T02:07:33.137Z,98.55
2023-08-22T02:09:59.533Z,99.11
2023-08-22T02:12:26.054Z,99.17
2023-08-22T02:14:52.497Z,98.68
2023-08-22T02:17:19.047Z,98.01
2023-08-22T02:19:45.399Z,97.65
2023-08-22T02:22:11.928Z,98.17
2023-08-22T02:24:38.270Z,98.47
2023-08-22T02:27:04.698Z,98.76
2023-08-22T02:29:31.721Z,98.70
2023-08-22T02:31:58.209Z,98.87
2023-08-22T02:34:26.117Z,99.15
2023-08-22T02:36:52.511Z,98.02
2023-08-22T02:39:18.959Z,97.69
2023-08-22T02:41:45.328Z,97.92
2023-08-22T02:44:11.694Z,98.14
2023-08-22T02:46:38.050Z,98.82
2023-08-22T02:49:04.430Z,98.99
2023-08-22T02:51:30.892Z,98.38
2023-08-22T02:53:57.239Z,98.06
2023-08-22T02:56:23.610Z,98.23
2023-08-22T02:58:49.997Z,97.35
2023-08-22T03:01:16.439Z,96.28
2023-08-22T03:03:42.838Z,96.51
2023-08-22T03:06:09.192Z,97.75
2023-08-22T03:08:35.599Z,97.48
2023-08-22T03:11:02.316Z,96.71
2023-08-22T03:13:29.288Z,96.38
2023-08-22T03:15:56.076Z,97.03
2023-08-22T03:18:22.833Z,97.31
2023-08-22T03:20:49.269Z,97.09
2023-08-22T03:23:15.605Z,97.77
2023-08-22T03:25:41.982Z,98.40
2023-08-22T03:28:08.343Z,99.03
2023-08-22T03:30:34.712Z,100.00
2023-08-22T03:33:01.109Z,100.00
2023-08-22T03:35:27.536Z,100.00
2023-08-22T03:37:53.883Z,99.74
2023-08-22T03:40:20.261Z,98.61
2023-08-22T03:42:46.669Z,97.90
2023-08-22T03:45:13.022Z,97.66
2023-08-22T03:47:39.745Z,97.25
2023-08-22T03:50:06.786Z,97.24
2023-08-22T03:52:33.181Z,97.29
2023-08-22T03:54:59.643Z,96.51
2023-08-22T03:57:26.005Z,96.54
2023-08-22T03:59:52.392Z,96.81
2023-08-22T04:02:19.744Z,97.13
2023-08-22T04:04:46.157Z,98.60
2023-08-22T04:07:12.512Z,98.60
2023-08-22T04:09:38.919Z,97.76
2023-08-22T04:12:05.480Z,97.39
2023-08-22T04:14:31.864Z,97.74
2023-08-22T04:16:58.305Z,97.98
2023-08-22T04:19:24.764Z,97.87
2023-08-22T04:21:51.174Z,97.31
2023-08-22T04:24:17.557Z,97.19
2023-08-22T04:26:44.374Z,96.92
2023-08-22T04:29:11.371Z,96.45
2023-08-22T04:31:37.720Z,96.34
2023-08-22T04:34:04.134Z,96.67
2023-08-22T04:36:30.563Z,97.21
2023-08-22T04:38:56.959Z,96.98
2023-08-22T04:41:23.334Z,96.84
2023-08-22T04:43:49.699Z,96.87
2023-08-22T04:46:16.938Z,96.99
2023-08-22T04:48:43.532Z,96.76
2023-08-22T04:51:09.893Z,97.07
2023-08-22T04:53:36.283Z,96.83
2023-08-22T04:56:02.629Z,96.44
2023-08-22T04:58:29.035Z,96.53
2023-08-22T05:00:55.381Z,96.51
2023-08-22T05:03:21.771Z,96.39
2023-08-22T05:05:48.215Z,96.01
2023-08-22T05:08:14.674Z,95.63
2023-08-22T05:10:41.044Z,95.78
2023-08-22T05:13:07.391Z,95.35
2023-08-22T05:15:34.217Z,95.23
2023-08-22T05:18:01.653Z,94.82
2023-08-22T05:20:28.153Z,95.67
2023-08-22T05:22:54.539Z,95.91
2023-08-22T05:25:20.976Z,95.51
2023-08-22T05:27:47.350Z,96.17
2023-08-22T05:30:13.784Z,96.71
2023-08-22T05:32:40.179Z,95.95
2023-08-22T05:35:07.238Z,96.61
2023-08-22T05:37:33.586Z,97.21
2023-08-22T05:39:59.964Z,96.35
2023-08-22T05:42:26.455Z,96.24
2023-08-22T05:44:52.846Z,96.28
2023-08-22T05:47:19.228Z,95.03
2023-08-22T05:49:45.674Z,93.77
2023-08-22T05:52:12.067Z,92.96
2023-08-22T05:54:38.430Z,92.12
2023-08-22T05:57:04.894Z,91.76
2023-08-22T05:59:31.246Z,92.79
2023-08-22T06:01:58.902Z,92.64
2023-08-22T06:04:25.668Z,91.77
2023-08-22T06:06:52.076Z,91.08
2023-08-22T06:09:18.573Z,91.12
2023-08-22T06:11:44.918Z,91.03
2023-08-22T06:14:11.312Z,90.89
2023-08-22T06:16:37.675Z,90.79
2023-08-22T06:19:04.046Z,89.98
2023-08-22T06:21:30.478Z,87.86
2023-08-22T06:23:56.886Z,85.34
2023-08-22T06:26:23.307Z,80.50
2023-08-22T06:28:49.658Z,78.04
2023-08-22T06:31:16.081Z,76.91
2023-08-22T06:33:42.500Z,76.00
2023-08-22T06:36:08.941Z,74.94
2023-08-22T06:38:35.343Z,73.83
2023-08-22T06:41:08.281Z,74.58
2023-08-22T06:43:35.153Z,74.21
2023-08-22T06:46:01.746Z,75.06
2023-08-22T06:48:40.918Z,74.57
2023-08-22T06:51:07.950Z,74.77
2023-08-22T06:53:34.388Z,73.74
2023-08-22T06:56:00.770Z,73.26
2023-08-22T06:58:27.150Z,73.65
2023-08-22T07:00:53.595Z,73.57
2023-08-22T07:03:20.163Z,73.08
2023-08-22T07:05:51.034Z,70.89
2023-08-22T07:08:17.392Z,71.95
2023-08-22T07:10:43.766Z,71.44
2023-08-22T07:13:10.149Z,70.39
2023-08-22T07:15:36.508Z,70.63
2023-08-22T07:18:03.013Z,70.87
2023-08-22T07:20:29.410Z,70.48
2023-08-22T07:22:55.786Z,68.79
2023-08-22T07:25:22.139Z,68.45
2023-08-22T07:27:48.496Z,68.81
2023-08-22T07:30:14.935Z,67.54
2023-08-22T07:32:41.580Z,66.42
2023-08-22T07:35:08.629Z,67.15
2023-08-22T07:37:35.156Z,66.83
2023-08-22T07:40:01.517Z,64.37
2023-08-22T07:42:27.884Z,63.14
2023-08-22T07:44:54.315Z,62.75
2023-08-22T07:47:20.676Z,62.23
2023-08-22T07:49:47.010Z,60.48
2023-08-22T07:52:13.377Z,61.61
2023-08-22T07:54:39.734Z,60.57
2023-08-22T07:57:17.893Z,57.79
2023-08-22T07:59:45.127Z,59.36
2023-08-22T08:02:11.596Z,59.51
2023-08-22T08:04:38.029Z,59.62
2023-08-22T08:07:04.534Z,59.13
2023-08-22T08:09:35.559Z,58.59
2023-08-22T08:12:02.399Z,56.47
2023-08-22T08:14:28.765Z,57.35
2023-08-22T08:16:55.206Z,57.64
2023-08-22T08:19:23.066Z,56.69
2023-08-22T08:21:50.700Z,57.52
2023-08-22T08:24:17.034Z,58.08
2023-08-22T08:26:43.389Z,58.59
2023-08-22T08:29:09.758Z,58.88
2023-08-22T08:31:36.112Z,57.50
2023-08-22T08:34:05.440Z,57.25
2023-08-22T08:36:32.092Z,60.36
2023-08-22T08:38:58.437Z,58.60
2023-08-22T08:41:25.048Z,57.98
2023-08-22T08:43:51.837Z,54.93
2023-08-22T08:46:18.653Z,56.10
2023-08-22T08:48:46.509Z,57.90
2023-08-22T08:51:12.964Z,55.96
2023-08-22T08:53:40.891Z,57.47
2023-08-22T08:56:07.501Z,57.13
2023-08-22T08:58:33.894Z,57.98
2023-08-22T09:01:00.638Z,59.20
2023-08-22T09:03:27.082Z,60.63
2023-08-22T09:05:53.420Z,62.34
2023-08-22T09:08:21.633Z,59.47
2023-08-22T09:10:52.337Z,57.91
2023-08-22T09:13:26.189Z,57.20
2023-08-22T09:15:59.145Z,56.48
2023-08-22T09:18:25.603Z,57.64
2023-08-22T09:20:51.962Z,58.42
2023-08-22T09:23:36.551Z,59.49
2023-08-22T09:26:02.889Z,57.36
2023-08-22T09:28:29.356Z,55.18
2023-08-22T09:30:55.712Z,56.43
2023-08-22T09:33:22.150Z,55.62
2023-08-22T09:35:48.522Z,55.63
2023-08-22T09:38:14.986Z,53.04
2023-08-22T09:40:52.940Z,53.48
2023-08-22T09:43:20.442Z,51.11
2023-08-22T09:45:48.660Z,51.85
2023-08-22T09:48:19.857Z,51.01
2023-08-22T09:50:50.457Z,50.80
2023-08-22T09:53:18.742Z,51.20
2023-08-22T09:55:46.050Z,51.96
2023-08-22T09:58:12.786Z,52.14
2023-08-22T10:00:39.396Z,53.79
2023-08-22T10:03:07.264Z,52.30
2023-08-22T10:05:34.538Z,50.86
2023-08-22T10:08:01.059Z,47.89
2023-08-22T10:10:28.261Z,50.35
2023-08-22T10:12:56.189Z,49.96
2023-08-22T10:15:22.776Z,51.11
2023-08-22T10:17:50.371Z,52.05
2023-08-22T10:20:16.921Z,53.26
2023-08-22T10:22:43.420Z,54.62
2023-08-22T10:25:09.949Z,54.61
2023-08-22T10:27:38.441Z,54.26
2023-08-22T10:30:13.936Z,51.43
2023-08-22T10:32:41.369Z,51.61
2023-08-22T10:35:21.648Z,49.94
2023-08-22T10:37:49.814Z,49.45
2023-08-22T10:40:27.925Z,49.68
2023-08-22T10:43:35.988Z,48.53
2023-08-22T10:46:06.180Z,48.82
2023-08-22T10:48:33.773Z,48.39
2023-08-22T10:51:08.059Z,48.41
2023-08-22T10:53:45.379Z,49.43
2023-08-22T10:56:23.138Z,49.41
2023-08-22T10:59:00.404Z,49.60
2023-08-22T11:01:27.474Z,51.69
2023-08-22T11:03:54.409Z,53.06
2023-08-22T11:06:23.913Z,54.63
2023-08-22T11:08:51.418Z,52.58
2023-08-22T11:11:19.904Z,51.42
2023-08-22T11:13:46.454Z,50.65
2023-08-22T11:16:15.892Z,50.09
2023-08-22T11:18:43.564Z,48.88
2023-08-22T11:21:10.586Z,49.36
2023-08-22T11:23:38.540Z,52.29
2023-08-22T11:26:08.499Z,50.84
2023-08-22T11:28:37.119Z,53.52
2023-08-22T11:31:04.886Z,53.54
2023-08-22T11:33:35.704Z,51.46
2023-08-22T11:36:02.120Z,53.34
2023-08-22T11:38:28.510Z,53.23
2023-08-22T11:40:55.017Z,52.31
2023-08-22T11:43:21.391Z,51.75
2023-08-22T11:45:47.781Z,51.34
2023-08-22T11:48:15.433Z,50.76
2023-08-22T11:50:43.046Z,52.60
2023-08-22T11:53:11.971Z,51.60
2023-08-22T11:55:46.607Z,52.41
2023-08-22T11:58:15.902Z,52.64
2023-08-22T12:00:42.983Z,53.78
2023-08-22T12:03:09.389Z,52.90
2023-08-22T12:05:45.154Z,54.81
2023-08-22T12:08:11.500Z,54.41
2023-08-22T12:10:41.475Z,52.29
2023-08-22T12:13:09.070Z,52.36
2023-08-22T12:15:36.242Z,51.35
2023-08-22T12:18:03.245Z,50.86
2023-08-22T12:20:29.656Z,48.46
2023-08-22T12:22:56.023Z,46.89
2023-08-22T12:25:22.419Z,48.22
2023-08-22T12:27:48.766Z,48.01
2023-08-22T12:30:15.192Z,46.63
2023-08-22T12:32:45.700Z,47.72
2023-08-22T12:35:13.261Z,47.35
2023-08-22T12:37:40.577Z,45.62
2023-08-22T12:40:10.007Z,47.16
2023-08-22T12:42:36.357Z,47.78
2023-08-22T12:45:02.822Z,47.56
2023-08-22T12:47:29.188Z,47.26
2023-08-22T12:49:55.539Z,45.71
2023-08-22T12:52:21.960Z,45.49
2023-08-22T12:54:48.356Z,45.40
2023-08-22T12:57:14.727Z,45.51
2023-08-22T12:59:41.095Z,45.08
2023-08-22T13:02:07.575Z,44.80
2023-08-22T13:04:34.201Z,45.20
2023-08-22T13:07:00.629Z,45.31
2023-08-22T13:09:27.044Z,45.10
2023-08-22T13:11:53.431Z,44.33
2023-08-22T13:14:19.819Z,45.15
2023-08-22T13:16:46.280Z,46.19
2023-08-22T13:19:12.664Z,45.89
2023-08-22T13:21:39.029Z,46.13
2023-08-22T13:24:05.676Z,47.66
2023-08-22T13:26:32.045Z,47.56
2023-08-22T13:28:58.405Z,47.00
2023-08-22T13:31:24.839Z,47.71
2023-08-22T13:33:51.243Z,47.34
2023-08-22T13:36:17.719Z,48.65
2023-08-22T13:38:44.096Z,49.32
2023-08-22T13:41:10.434Z,49.33
2023-08-22T13:43:36.800Z,48.52
2023-08-22T13:46:03.203Z,49.01
2023-08-22T13:48:29.600Z,49.75
2023-08-22T13:50:56.000Z,49.28
2023-08-22T13:53:22.430Z,50.58
2023-08-22T13:55:48.881Z,48.36
2023-08-22T13:58:15.258Z,50.20
2023-08-22T14:00:41.627Z,49.98
2023-08-22T14:03:08.043Z,50.27
2023-08-22T14:05:34.444Z,50.13
2023-08-22T14:08:00.877Z,50.48
2023-08-22T14:10:27.356Z,51.70
2023-08-22T14:12:53.895Z,52.63
2023-08-22T14:15:20.282Z,51.19
2023-08-22T14:17:46.899Z,52.28
2023-08-22T14:20:13.420Z,51.32
2023-08-22T14:22:41.648Z,50.13
2023-08-22T14:25:08.399Z,50.66
2023-08-22T14:27:34.768Z,49.65
2023-08-22T14:30:01.133Z,49.09
2023-08-22T14:32:27.510Z,50.70
2023-08-22T14:34:53.914Z,49.54
2023-08-22T14:37:23.566Z,49.49
2023-08-22T14:39:50.414Z,49.53
2023-08-22T14:42:16.788Z,51.17
2023-08-22T14:44:43.176Z,50.54
2023-08-22T14:47:09.523Z,51.03
2023-08-22T14:49:35.985Z,49.85
2023-08-22T14:52:02.345Z,50.05
2023-08-22T14:54:28.734Z,50.17
2023-08-22T14:56:55.113Z,50.77
2023-08-22T14:59:21.468Z,50.73
2023-08-22T15:01:47.863Z,51.35
2023-08-22T15:04:14.295Z,50.53
2023-08-22T15:06:40.678Z,50.19
2023-08-22T15:09:06.999Z,50.20
2023-08-22T15:11:33.336Z,50.91
2023-08-22T15:13:59.668Z,53.28
2023-08-22T15:16:25.998Z,52.40
2023-08-22T15:18:52.313Z,50.22
2023-08-22T15:21:18.659Z,50.98
2023-08-22T15:23:44.991Z,52.20
2023-08-22T15:26:11.400Z,52.25
2023-08-22T15:28:37.769Z,51.73
2023-08-22T15:31:04.138Z,52.42
2023-08-22T15:33:30.602Z,51.49
2023-08-22T15:36:00.274Z,52.35
2023-08-22T15:38:35.674Z,54.55
2023-08-22T15:41:03.404Z,53.35
2023-08-22T15:43:31.307Z,53.56
2023-08-22T15:45:57.657Z,55.88
2023-08-22T15:48:24.082Z,55.45
2023-08-22T15:50:50.442Z,54.80
2023-08-22T15:53:16.853Z,55.13
2023-08-22T15:55:43.213Z,54.06
2023-08-22T15:58:09.592Z,53.69
2023-08-22T16:00:36.009Z,52.33
2023-08-22T16:03:02.470Z,51.32
2023-08-22T16:05:28.900Z,51.50
2023-08-22T16:07:55.293Z,54.29
2023-08-22T16:10:21.785Z,52.72
2023-08-22T16:12:48.149Z,53.63
2023-08-22T16:15:14.505Z,53.39
2023-08-22T16:17:40.873Z,54.81
2023-08-22T16:20:07.959Z,55.39
2023-08-22T16:22:34.333Z,56.51
2023-08-22T16:25:00.693Z,56.13
2023-08-22T16:27:37.000Z,56.89
2023-08-22T16:30:07.455Z,56.82
2023-08-22T16:32:33.895Z,55.32
2023-08-22T16:35:00.256Z,55.65
2023-08-22T16:37:26.621Z,56.20
2023-08-22T16:39:52.970Z,56.84
2023-08-22T16:42:19.362Z,56.80
2023-08-22T16:44:45.711Z,57.00
2023-08-22T16:47:12.099Z,57.29
2023-08-22T16:49:38.451Z,58.13
2023-08-22T16:52:05.148Z,57.94
2023-08-22T16:54:31.492Z,57.19
2023-08-22T16:56:57.958Z,57.09
2023-08-22T16:59:24.345Z,57.17
2023-08-22T17:01:51.045Z,56.49
2023-08-22T17:04:17.450Z,56.88
2023-08-22T17:06:43.828Z,57.90
2023-08-22T17:09:10.176Z,57.70
2023-08-22T17:11:36.588Z,58.57
2023-08-22T17:14:03.006Z,58.92
2023-08-22T17:16:29.471Z,59.12
2023-08-22T17:18:55.948Z,59.34
2023-08-22T17:21:22.574Z,59.65
2023-08-22T17:23:48.969Z,59.79
2023-08-22T17:26:15.328Z,60.47
2023-08-22T17:28:41.727Z,60.70
2023-08-22T17:31:09.200Z,60.71
2023-08-22T17:33:37.285Z,61.50
2023-08-22T17:36:05.453Z,62.80
2023-08-22T17:38:31.942Z,62.53
2023-08-22T17:41:08.599Z,62.18
2023-08-22T17:43:36.175Z,62.84
2023-08-22T17:46:03.365Z,63.81
2023-08-22T17:48:30.356Z,64.12
2023-08-22T17:50:57.930Z,65.34
2023-08-22T17:53:24.960Z,65.04
2023-08-22T17:55:52.116Z,66.26
2023-08-22T17:58:22.621Z,67.72
2023-08-22T18:00:50.026Z,68.06
2023-08-22T18:03:17.011Z,69.14
2023-08-22T18:06:02.556Z,68.30
2023-08-22T18:08:29.445Z,68.41
2023-08-22T18:10:56.782Z,68.81
2023-08-22T18:13:24.413Z,70.49
2023-08-22T18:18:30.889Z,70.34
2023-08-22T18:21:04.914Z,70.06
2023-08-22T18:23:31.374Z,70.77
2023-08-22T18:26:03.066Z,70.79
2023-08-22T18:28:32.317Z,71.27
2023-08-22T18:31:10.743Z,71.97
2023-08-22T18:33:37.508Z,73.63
2023-08-22T18:36:04.029Z,73.49
2023-08-22T18:38:30.435Z,74.15
2023-08-22T18:40:58.344Z,74.52
2023-08-22T18:43:24.739Z,74.86
2023-08-22T18:45:51.130Z,74.97
2023-08-22T18:48:17.518Z,75.72
2023-08-22T18:50:44.456Z,75.85
2023-08-22T18:53:11.984Z,76.09
2023-08-22T18:55:38.336Z,76.48
2023-08-22T18:58:04.760Z,77.33
2023-08-22T19:00:31.142Z,78.12
2023-08-22T19:02:58.309Z,78.26
2023-08-22T19:05:24.954Z,78.28
2023-08-22T19:07:51.316Z,78.52
2023-08-22T19:10:17.670Z,79.39
2023-08-22T19:12:44.051Z,79.75
2023-08-22T19:15:10.621Z,80.20
2023-08-22T19:17:37.070Z,80.34
2023-08-22T19:20:03.695Z,80.99
2023-08-22T19:22:30.106Z,81.73
2023-08-22T19:24:56.531Z,82.85
2023-08-22T19:27:22.900Z,83.33
2023-08-22T19:29:49.416Z,83.48
2023-08-22T19:32:23.854Z,83.82
2023-08-22T19:35:02.098Z,84.30
2023-08-22T19:37:28.434Z,84.84
2023-08-22T19:39:54.805Z,84.95
2023-08-22T19:42:21.182Z,85.07
2023-08-22T19:44:47.540Z,85.20
2023-08-22T19:47:13.910Z,85.60
2023-08-22T19:49:40.268Z,86.14
2023-08-22T19:52:06.662Z,86.34
2023-08-22T19:54:33.029Z,86.32
2023-08-22T19:56:59.415Z,86.68
2023-08-22T19:59:25.789Z,86.42
2023-08-22T20:01:52.158Z,86.72
2023-08-22T20:04:18.544Z,87.47
2023-08-22T20:06:44.920Z,87.83
2023-08-22T20:09:14.847Z,87.65
2023-08-22T20:11:42.539Z,87.71
2023-08-22T20:14:09.797Z,87.92
2023-08-22T20:16:36.732Z,88.15
2023-08-22T20:19:03.377Z,88.25
2023-08-22T20:21:29.859Z,88.38
2023-08-22T20:23:56.456Z,88.31
2023-08-22T20:26:23.437Z,88.58
2023-08-22T20:28:50.223Z,89.13
2023-08-22T20:31:17.414Z,89.63
2023-08-22T20:33:44.445Z,89.87
2023-08-22T20:36:11.244Z,89.84
2023-08-22T20:38:38.370Z,89.78
2023-08-22T20:41:04.762Z,89.87
2023-08-22T20:43:31.123Z,89.98
2023-08-22T20:46:00.656Z,91.44
2023-08-22T20:48:27.111Z,92.06
2023-08-22T20:50:53.528Z,92.48
2023-08-22T20:53:19.907Z,94.13
2023-08-22T20:55:48.690Z,94.80
2023-08-22T20:58:15.029Z,95.90
2023-08-22T21:00:41.429Z,96.35
2023-08-22T21:03:07.828Z,96.24
2023-08-22T21:05:37.443Z,96.09
2023-08-22T21:08:05.049Z,96.59
2023-08-22T21:10:32.065Z,97.31
2023-08-22T21:12:58.475Z,97.63
2023-08-22T21:15:24.862Z,97.14
2023-08-22T21:17:52.010Z,96.27
2023-08-22T21:20:18.414Z,95.88
2023-08-22T21:22:45.260Z,96.07
2023-08-22T21:25:12.057Z,95.88
2023-08-22T21:27:38.429Z,95.72
2023-08-22T21:30:05.291Z,95.79
2023-08-22T21:32:31.779Z,95.59
2023-08-22T21:34:58.250Z,96.03
2023-08-22T21:37:24.607Z,96.24
2023-08-22T21:39:51.102Z,96.29
2023-08-22T21:42:17.481Z,96.55
2023-08-22T21:44:44.209Z,96.65
2023-08-22T21:47:10.892Z,96.79
2023-08-22T21:49:37.238Z,97.27
2023-08-22T21:52:03.834Z,97.49
2023-08-22T21:54:30.184Z,98.58
2023-08-22T21:56:56.587Z,99.15
2023-08-22T21:59:23.051Z,100.00
2023-08-22T22:01:49.533Z,100.00
2023-08-22T22:04:15.902Z,100.00
2023-08-22T22:06:42.279Z,99.63
2023-08-22T22:09:08.667Z,99.90
2023-08-22T22:11:35.021Z,100.00
2023-08-22T22:14:01.417Z,100.00
2023-08-22T22:16:34.596Z,100.00
2023-08-22T22:19:09.849Z,100.00
2023-08-22T22:21:36.314Z,100.00
2023-08-22T22:24:04.839Z,100.00
2023-08-22T22:26:31.171Z,100.00
2023-08-22T22:28:57.540Z,100.00
2023-08-22T22:31:23.932Z,100.00
2023-08-22T22:33:50.315Z,100.00
2023-08-22T22:36:16.682Z,100.00
2023-08-22T22:38:43.044Z,100.00
2023-08-22T22:41:09.467Z,100.00
2023-08-22T22:43:36.030Z,100.00
2023-08-22T22:46:02.767Z,100.00
2023-08-22T22:48:29.275Z,100.00
2023-08-22T22:50:55.959Z,100.00
2023-08-22T22:53:22.457Z,100.00
2023-08-22T22:55:48.840Z,100.00
2023-08-22T22:58:15.257Z,100.00
2023-08-22T23:00:41.695Z,100.00
2023-08-22T23:03:08.211Z,100.00
2023-08-22T23:05:34.741Z,100.00
2023-08-22T23:08:01.145Z,100.00
2023-08-22T23:10:27.552Z,100.00
2023-08-22T23:12:54.522Z,100.00
2023-08-22T23:15:21.027Z,100.00
2023-08-22T23:17:47.894Z,100.00
2023-08-22T23:20:16.040Z,100.00
2023-08-22T23:22:44.110Z,100.00
2023-08-22T23:25:10.714Z,100.00
2023-08-22T23:27:37.669Z,100.00
2023-08-22T23:30:06.656Z,100.00
2023-08-22T23:32:33.444Z,100.00
2023-08-22T23:35:02.297Z,100.00
2023-08-22T23:37:28.698Z,100.00
2023-08-22T23:39:55.824Z,100.00
2023-08-22T23:42:22.248Z,100.00
2023-08-22T23:44:49.624Z,100.00
2023-08-22T23:47:17.402Z,100.00
2023-08-22T23:49:44.463Z,100.00
2023-08-22T23:52:11.331Z,100.00
2023-08-22T23:54:38.000Z,100.00
2023-08-22T23:57:05.400Z,100.00
2023-08-22T23:59:33.260Z,100.00
